createdAt,value
2017-07-10T00:02:48.070Z,0
2017-07-10T00:12:48.039Z,0
2017-07-10T00:22:48.075Z,0
2017-07-10T00:32:48.048Z,0
2017-07-10T00:42:47.987Z,0
2017-07-10T00:52:48.050Z,0
2017-07-10T01:02:48.019Z,0
2017-07-10T01:12:47.968Z,0
2017-07-10T01:22:48.037Z,0
2017-07-10T01:32:48.028Z,0
2017-07-10T01:42:48.068Z,0
2017-07-10T01:52:48.033Z,0
2017-07-10T02:02:47.967Z,0
2017-07-10T02:12:48.036Z,0
2017-07-10T02:22:47.983Z,0
2017-07-10T02:32:48.059Z,0
2017-07-10T02:42:48.034Z,0
2017-07-10T02:52:47.977Z,0
2017-07-10T03:02:48.018Z,0
2017-07-10T03:12:47.992Z,0
2017-07-10T03:22:47.969Z,0
2017-07-10T03:32:48.044Z,0
2017-07-10T03:42:47.983Z,0
2017-07-10T03:52:48.062Z,10
2017-07-10T04:02:48.014Z,15
2017-07-10T04:12:47.977Z,20
2017-07-10T04:22:48.036Z,25
2017-07-10T04:32:47.972Z,30
2017-07-10T04:42:48.072Z,30
2017-07-10T04:52:48.017Z,40
2017-07-10T05:02:47.988Z,35
2017-07-10T05:12:48.059Z,30
2017-07-10T05:22:47.978Z,35
2017-07-10T05:32:48.078Z,35
2017-07-10T05:42:48.014Z,45
2017-07-10T05:52:48.000Z,50
2017-07-10T06:02:48.045Z,55
2017-07-10T06:12:48.024Z,55
2017-07-10T06:22:48.074Z,50
2017-07-10T06:32:48.029Z,55
2017-07-10T06:42:48.014Z,70
2017-07-10T06:52:48.073Z,85
2017-07-10T07:02:48.131Z,145
2017-07-10T07:12:48.210Z,125
2017-07-10T07:22:48.038Z,105
2017-07-10T07:32:48.000Z,110
2017-07-10T07:42:47.957Z,95
2017-07-10T07:52:47.948Z,85
2017-07-10T08:02:47.968Z,85
2017-07-10T08:12:48.006Z,95
2017-07-10T08:22:48.096Z,90
2017-07-10T08:32:47.975Z,85
2017-07-10T08:42:48.090Z,105
2017-07-10T08:52:47.978Z,135
2017-07-10T09:02:47.965Z,180
2017-07-10T09:12:47.989Z,185
2017-07-10T09:22:47.984Z,255
2017-07-10T09:32:47.994Z,255
2017-07-10T09:42:47.996Z,280
2017-07-10T09:52:47.978Z,330
2017-07-10T10:02:48.430Z,365
2017-07-10T10:12:47.999Z,295
2017-07-10T10:22:47.979Z,315
2017-07-10T10:32:47.998Z,355
2017-07-10T10:42:48.019Z,285
2017-07-10T10:52:48.002Z,210
2017-07-10T11:02:47.988Z,285
2017-07-10T11:12:48.006Z,250
2017-07-10T11:22:47.990Z,235
2017-07-10T11:32:48.008Z,235
2017-07-10T11:42:48.008Z,225
2017-07-10T11:52:48.019Z,215
2017-07-10T12:02:48.020Z,270
2017-07-10T12:12:48.029Z,180
2017-07-10T12:22:48.028Z,225
2017-07-10T12:32:48.025Z,325
2017-07-10T12:42:48.028Z,255
2017-07-10T12:52:48.113Z,190
2017-07-10T13:02:48.051Z,80
2017-07-10T13:12:48.129Z,125
2017-07-10T13:22:48.087Z,195
2017-07-10T13:32:48.182Z,305
2017-07-10T13:42:48.083Z,280
2017-07-10T13:52:48.148Z,205
2017-07-10T14:02:48.128Z,280
2017-07-10T14:12:48.094Z,250
2017-07-10T14:22:48.118Z,125
2017-07-10T14:32:48.062Z,155
2017-07-10T14:42:48.543Z,245
2017-07-10T14:52:48.144Z,215
2017-07-10T15:02:54.690Z,150
2017-07-10T15:12:48.167Z,200
2017-07-10T15:22:48.100Z,95
2017-07-10T15:32:48.254Z,105
2017-07-10T15:42:48.190Z,120
2017-07-10T15:52:48.148Z,130
2017-07-10T16:02:48.087Z,200
2017-07-10T16:12:48.670Z,195
2017-07-10T16:22:48.137Z,135
2017-07-10T16:32:48.462Z,50
2017-07-10T16:42:48.184Z,20
2017-07-10T16:52:48.175Z,60
2017-07-10T17:02:49.038Z,70
2017-07-10T17:12:48.209Z,130
2017-07-10T17:22:48.175Z,160
2017-07-10T17:32:48.121Z,120
2017-07-10T17:42:48.399Z,105
2017-07-10T17:52:48.127Z,90
2017-07-10T18:02:48.170Z,60
2017-07-10T18:12:48.131Z,40
2017-07-10T18:22:49.006Z,15
2017-07-10T18:32:48.143Z,10
2017-07-10T18:42:48.098Z,10
2017-07-10T18:52:48.161Z,15
2017-07-10T19:02:48.169Z,15
2017-07-10T19:12:48.106Z,10
2017-07-10T19:22:48.140Z,5
2017-07-10T19:32:48.185Z,0
2017-07-10T19:42:48.195Z,0
2017-07-10T19:52:48.137Z,0
2017-07-10T20:02:48.221Z,0
2017-07-10T20:12:48.128Z,0
2017-07-10T20:22:48.127Z,0
2017-07-10T20:32:48.937Z,0
2017-07-10T20:42:48.135Z,0
2017-07-10T20:52:48.192Z,0
2017-07-10T21:02:48.427Z,0
2017-07-10T21:12:48.133Z,0
2017-07-10T21:22:48.181Z,0
2017-07-10T21:32:49.416Z,0
2017-07-10T21:42:48.172Z,0
2017-07-10T21:52:48.159Z,0
2017-07-10T22:02:48.227Z,0
2017-07-10T22:12:48.176Z,0
2017-07-10T22:22:52.182Z,0
2017-07-10T22:32:48.178Z,0
2017-07-10T22:42:48.169Z,0
2017-07-10T22:52:48.377Z,0
2017-07-10T23:02:48.208Z,0
2017-07-10T23:12:48.243Z,0
2017-07-10T23:22:48.303Z,0
2017-07-10T23:32:48.312Z,0
2017-07-10T23:42:48.222Z,0
2017-07-10T23:52:49.189Z,0
